Terminal Aerodrome Forecast
Issued by NWS

Home | Current Version | Previous Version | Text Only | Print | Product List | Glossary On
Versions: 1 2 3 4 5 6 7 8 9 10 11 12 13 14 15 16 17 18 19 20 21 22 23 24 25 26 27 28 29 30 31 32 33 34 35 36 37 38 39
000
FTUS46 KOTX 201738
TAFCOE
TAF
KCOE 201738Z 2018/2118 19009G15KT P6SM SCT040 BKN100
     FM202200 23010KT P6SM SCT050 BKN100
     FM210130 24008G14KT P6SM VCTS SCT060CB BKN090 BKN150
     FM210600 12006KT P6SM VCSH BKN080 OVC150
     FM210900 16006KT P6SM SCT080
      AMD LTD TO CLD AND VIS=

USA.gov is the U.S. government's official web portal to all federal, state and local government web resources and services.